sensor_id;sensor_type;location;lat;lon;timestamp;temperature;humidity
23744;DHT22;12052;53.478;10.182;2023-03-12T00:00:30;1.40;99.90
23744;DHT22;12052;53.478;10.182;2023-03-12T00:02:55;1.40;99.90
23744;DHT22;12052;53.478;10.182;2023-03-12T00:05:21;1.40;99.90
23744;DHT22;12052;53.478;10.182;2023-03-12T00:07:50;1.40;99.90
23744;DHT22;12052;53.478;10.182;2023-03-12T00:10:16;1.30;99.90
23744;DHT22;12052;53.478;10.182;2023-03-12T00:12:44;1.30;99.90
23744;DHT22;12052;53.478;10.182;2023-03-12T00:15:10;1.30;99.90
23744;DHT22;12052;53.478;10.182;2023-03-12T00:17:36;1.30;99.90
23744;DHT22;12052;53.478;10.182;2023-03-12T00:20:03;1.30;99.90
23744;DHT22;12052;53.478;10.182;2023-03-12T00:22:29;1.30;99.90
23744;DHT22;12052;53.478;10.182;2023-03-12T00:24:56;1.30;99.90
23744;DHT22;12052;53.478;10.182;2023-03-12T00:27:23;1.30;99.90
23744;DHT22;12052;53.478;10.182;2023-03-12T00:29:49;1.30;99.90
23744;DHT22;12052;53.478;10.182;2023-03-12T00:32:15;1.20;99.90
23744;DHT22;12052;53.478;10.182;2023-03-12T00:34:40;1.20;99.90
23744;DHT22;12052;53.478;10.182;2023-03-12T00:37:06;1.20;99.90
23744;DHT22;12052;53.478;10.182;2023-03-12T00:39:33;1.10;99.90
23744;DHT22;12052;53.478;10.182;2023-03-12T00:41:59;1.10;99.90
23744;DHT22;12052;53.478;10.182;2023-03-12T00:44:25;1.10;99.90
23744;DHT22;12052;53.478;10.182;2023-03-12T00:46:50;1.10;99.90
23744;DHT22;12052;53.478;10.182;2023-03-12T00:49:16;1.10;99.90
23744;DHT22;12052;53.478;10.182;2023-03-12T00:51:42;1.10;99.90
23744;DHT22;12052;53.478;10.182;2023-03-12T00:54:07;1.10;99.90
23744;DHT22;12052;53.478;10.182;2023-03-12T00:56:33;1.10;99.90
23744;DHT22;12052;53.478;10.182;2023-03-12T00:58:59;1.10;99.90
23744;DHT22;12052;53.478;10.182;2023-03-12T01:01:24;1.20;99.90
23744;DHT22;12052;53.478;10.182;2023-03-12T01:03:52;1.20;99.90
23744;DHT22;12052;53.478;10.182;2023-03-12T01:06:18;1.20;99.90
23744;DHT22;12052;53.478;10.182;2023-03-12T01:08:43;1.20;99.90
23744;DHT22;12052;53.478;10.182;2023-03-12T01:11:18;1.20;99.90
23744;DHT22;12052;53.478;10.182;2023-03-12T01:13:44;1.20;99.90
23744;DHT22;12052;53.478;10.182;2023-03-12T01:16:10;1.30;99.90
23744;DHT22;12052;53.478;10.182;2023-03-12T01:18:36;1.30;99.90
23744;DHT22;12052;53.478;10.182;2023-03-12T01:21:03;1.30;99.90
23744;DHT22;12052;53.478;10.182;2023-03-12T01:23:28;1.30;99.90
23744;DHT22;12052;53.478;10.182;2023-03-12T01:25:54;1.30;99.90
23744;DHT22;12052;53.478;10.182;2023-03-12T01:28:22;1.30;99.90
23744;DHT22;12052;53.478;10.182;2023-03-12T01:30:47;1.30;99.90
23744;DHT22;12052;53.478;10.182;2023-03-12T01:33:13;1.30;99.90
23744;DHT22;12052;53.478;10.182;2023-03-12T01:35:40;1.40;99.90
23744;DHT22;12052;53.478;10.182;2023-03-12T01:38:07;1.40;99.90
23744;DHT22;12052;53.478;10.182;2023-03-12T01:40:34;1.30;99.90
23744;DHT22;12052;53.478;10.182;2023-03-12T01:43:21;1.30;99.90
23744;DHT22;12052;53.478;10.182;2023-03-12T01:48:49;1.30;99.90
23744;DHT22;12052;53.478;10.182;2023-03-12T01:51:16;1.30;99.90
23744;DHT22;12052;53.478;10.182;2023-03-12T01:53:46;1.30;99.90
23744;DHT22;12052;53.478;10.182;2023-03-12T01:56:12;1.30;99.90
23744;DHT22;12052;53.478;10.182;2023-03-12T01:58:42;1.30;99.90
23744;DHT22;12052;53.478;10.182;2023-03-12T02:01:09;1.30;99.90
23744;DHT22;12052;53.478;10.182;2023-03-12T02:03:35;1.30;99.90
23744;DHT22;12052;53.478;10.182;2023-03-12T02:06:05;1.30;99.90
23744;DHT22;12052;53.478;10.182;2023-03-12T02:08:35;1.30;99.90
23744;DHT22;12052;53.478;10.182;2023-03-12T02:11:01;1.30;99.90
23744;DHT22;12052;53.478;10.182;2023-03-12T02:13:27;1.30;99.90
23744;DHT22;12052;53.478;10.182;2023-03-12T02:15:53;1.30;99.90
23744;DHT22;12052;53.478;10.182;2023-03-12T02:18:19;1.40;99.90
23744;DHT22;12052;53.478;10.182;2023-03-12T02:23:40;1.40;99.90
23744;DHT22;12052;53.478;10.182;2023-03-12T02:26:08;1.50;99.90
23744;DHT22;12052;53.478;10.182;2023-03-12T02:28:35;1.50;99.90
23744;DHT22;12052;53.478;10.182;2023-03-12T02:31:07;1.60;99.90
23744;DHT22;12052;53.478;10.182;2023-03-12T02:33:33;1.50;99.90
23744;DHT22;12052;53.478;10.182;2023-03-12T02:35:58;1.50;99.90
23744;DHT22;12052;53.478;10.182;2023-03-12T02:38:35;1.60;99.90
23744;DHT22;12052;53.478;10.182;2023-03-12T02:44:15;1.70;99.90
23744;DHT22;12052;53.478;10.182;2023-03-12T02:46:48;1.70;99.90
23744;DHT22;12052;53.478;10.182;2023-03-12T02:49:15;1.70;99.90
23744;DHT22;12052;53.478;10.182;2023-03-12T02:51:42;1.70;99.90
23744;DHT22;12052;53.478;10.182;2023-03-12T02:54:09;1.70;99.90
23744;DHT22;12052;53.478;10.182;2023-03-12T02:56:35;1.70;99.90
23744;DHT22;12052;53.478;10.182;2023-03-12T02:59:01;1.70;99.90
23744;DHT22;12052;53.478;10.182;2023-03-12T03:01:26;1.60;99.90
23744;DHT22;12052;53.478;10.182;2023-03-12T03:03:52;1.60;99.90
23744;DHT22;12052;53.478;10.182;2023-03-12T03:06:19;1.60;99.90
23744;DHT22;12052;53.478;10.182;2023-03-12T03:08:45;1.60;99.90
23744;DHT22;12052;53.478;10.182;2023-03-12T03:11:11;1.50;99.90
23744;DHT22;12052;53.478;10.182;2023-03-12T03:13:37;1.40;99.90
23744;DHT22;12052;53.478;10.182;2023-03-12T03:16:02;1.40;99.90
23744;DHT22;12052;53.478;10.182;2023-03-12T03:18:29;1.40;99.90
23744;DHT22;12052;53.478;10.182;2023-03-12T03:21:01;1.30;99.90
23744;DHT22;12052;53.478;10.182;2023-03-12T03:23:27;1.20;99.90
23744;DHT22;12052;53.478;10.182;2023-03-12T03:25:53;1.20;99.90
23744;DHT22;12052;53.478;10.182;2023-03-12T03:28:19;1.10;99.90
23744;DHT22;12052;53.478;10.182;2023-03-12T03:30:45;0.90;99.90
23744;DHT22;12052;53.478;10.182;2023-03-12T03:33:11;0.80;99.90
23744;DHT22;12052;53.478;10.182;2023-03-12T03:35:37;0.80;99.90
23744;DHT22;12052;53.478;10.182;2023-03-12T03:38:02;0.70;99.90
23744;DHT22;12052;53.478;10.182;2023-03-12T03:40:28;0.70;99.90
23744;DHT22;12052;53.478;10.182;2023-03-12T03:42:54;0.60;99.90
23744;DHT22;12052;53.478;10.182;2023-03-12T03:45:20;0.50;99.90
23744;DHT22;12052;53.478;10.182;2023-03-12T03:47:45;0.50;99.90
23744;DHT22;12052;53.478;10.182;2023-03-12T03:50:11;0.50;99.90
23744;DHT22;12052;53.478;10.182;2023-03-12T03:52:37;0.50;99.90
23744;DHT22;12052;53.478;10.182;2023-03-12T03:55:03;0.50;99.90
23744;DHT22;12052;53.478;10.182;2023-03-12T03:57:28;0.50;99.90
23744;DHT22;12052;53.478;10.182;2023-03-12T03:59:54;0.40;99.90
23744;DHT22;12052;53.478;10.182;2023-03-12T04:02:20;0.40;99.90
23744;DHT22;12052;53.478;10.182;2023-03-12T04:04:46;0.30;99.90
23744;DHT22;12052;53.478;10.182;2023-03-12T04:07:12;0.30;99.90
23744;DHT22;12052;53.478;10.182;2023-03-12T04:09:37;0.30;99.90
23744;DHT22;12052;53.478;10.182;2023-03-12T04:12:03;0.30;99.90
23744;DHT22;12052;53.478;10.182;2023-03-12T04:14:28;0.30;99.90
23744;DHT22;12052;53.478;10.182;2023-03-12T04:16:55;0.20;99.90
23744;DHT22;12052;53.478;10.182;2023-03-12T04:19:20;0.20;99.90
23744;DHT22;12052;53.478;10.182;2023-03-12T04:21:46;0.20;99.90
23744;DHT22;12052;53.478;10.182;2023-03-12T04:24:15;0.10;99.90
23744;DHT22;12052;53.478;10.182;2023-03-12T04:26:41;0.10;99.90
23744;DHT22;12052;53.478;10.182;2023-03-12T04:29:07;0.00;99.90
23744;DHT22;12052;53.478;10.182;2023-03-12T04:31:33;0.00;99.90
23744;DHT22;12052;53.478;10.182;2023-03-12T04:33:59;0.00;99.90
23744;DHT22;12052;53.478;10.182;2023-03-12T04:36:24;-0.10;99.90
23744;DHT22;12052;53.478;10.182;2023-03-12T04:38:50;-0.10;99.90
23744;DHT22;12052;53.478;10.182;2023-03-12T04:41:16;-0.10;99.90
23744;DHT22;12052;53.478;10.182;2023-03-12T04:43:42;-0.20;99.90
23744;DHT22;12052;53.478;10.182;2023-03-12T04:46:08;-0.20;99.90
23744;DHT22;12052;53.478;10.182;2023-03-12T04:48:34;-0.20;99.90
23744;DHT22;12052;53.478;10.182;2023-03-12T04:51:01;-0.20;99.90
23744;DHT22;12052;53.478;10.182;2023-03-12T04:53:27;-0.20;99.90
23744;DHT22;12052;53.478;10.182;2023-03-12T04:55:53;-0.30;99.90
23744;DHT22;12052;53.478;10.182;2023-03-12T04:58:19;-0.30;99.90
23744;DHT22;12052;53.478;10.182;2023-03-12T05:00:46;-0.40;99.90
23744;DHT22;12052;53.478;10.182;2023-03-12T05:03:12;-0.40;99.90
23744;DHT22;12052;53.478;10.182;2023-03-12T05:05:38;-0.40;99.90
23744;DHT22;12052;53.478;10.182;2023-03-12T05:08:04;-0.40;99.90
23744;DHT22;12052;53.478;10.182;2023-03-12T05:10:30;-0.40;99.90
23744;DHT22;12052;53.478;10.182;2023-03-12T05:12:55;-0.50;99.90
23744;DHT22;12052;53.478;10.182;2023-03-12T05:15:21;-0.50;99.90
23744;DHT22;12052;53.478;10.182;2023-03-12T05:17:47;-0.50;99.90
23744;DHT22;12052;53.478;10.182;2023-03-12T05:20:13;-0.50;99.90
23744;DHT22;12052;53.478;10.182;2023-03-12T05:22:38;-0.60;99.90
23744;DHT22;12052;53.478;10.182;2023-03-12T05:25:04;-0.60;99.90
23744;DHT22;12052;53.478;10.182;2023-03-12T05:27:31;-0.60;99.90
23744;DHT22;12052;53.478;10.182;2023-03-12T05:29:56;-0.50;99.90
23744;DHT22;12052;53.478;10.182;2023-03-12T05:32:22;-0.50;99.90
23744;DHT22;12052;53.478;10.182;2023-03-12T05:34:47;-0.50;99.90
23744;DHT22;12052;53.478;10.182;2023-03-12T05:37:13;-0.50;99.90
23744;DHT22;12052;53.478;10.182;2023-03-12T05:39:38;-0.50;99.90
23744;DHT22;12052;53.478;10.182;2023-03-12T05:42:11;-0.50;99.90
23744;DHT22;12052;53.478;10.182;2023-03-12T05:44:37;-0.50;99.90
23744;DHT22;12052;53.478;10.182;2023-03-12T05:47:02;-0.50;99.90
23744;DHT22;12052;53.478;10.182;2023-03-12T05:49:29;-0.40;99.90
23744;DHT22;12052;53.478;10.182;2023-03-12T05:51:55;-0.50;99.90
23744;DHT22;12052;53.478;10.182;2023-03-12T05:54:21;-0.50;99.90
23744;DHT22;12052;53.478;10.182;2023-03-12T05:56:46;-0.40;99.90
23744;DHT22;12052;53.478;10.182;2023-03-12T05:59:12;-0.40;99.90
23744;DHT22;12052;53.478;10.182;2023-03-12T06:01:38;-0.40;99.90
23744;DHT22;12052;53.478;10.182;2023-03-12T06:04:04;-0.30;99.90
23744;DHT22;12052;53.478;10.182;2023-03-12T06:06:31;-0.30;99.90
23744;DHT22;12052;53.478;10.182;2023-03-12T06:08:57;-0.30;99.90
23744;DHT22;12052;53.478;10.182;2023-03-12T06:11:22;-0.30;99.90
23744;DHT22;12052;53.478;10.182;2023-03-12T06:13:48;-0.30;99.90
23744;DHT22;12052;53.478;10.182;2023-03-12T06:16:19;-0.30;99.90
23744;DHT22;12052;53.478;10.182;2023-03-12T06:18:45;-0.30;99.90
23744;DHT22;12052;53.478;10.182;2023-03-12T06:23:38;-0.30;99.90
23744;DHT22;12052;53.478;10.182;2023-03-12T06:26:04;-0.30;99.90
23744;DHT22;12052;53.478;10.182;2023-03-12T06:28:30;-0.30;99.90
23744;DHT22;12052;53.478;10.182;2023-03-12T06:30:56;-0.20;99.90
23744;DHT22;12052;53.478;10.182;2023-03-12T06:33:22;-0.30;99.90
23744;DHT22;12052;53.478;10.182;2023-03-12T06:35:47;-0.20;99.90
23744;DHT22;12052;53.478;10.182;2023-03-12T06:38:13;-0.20;99.90
23744;DHT22;12052;53.478;10.182;2023-03-12T06:40:39;-0.20;99.90
23744;DHT22;12052;53.478;10.182;2023-03-12T06:43:04;-0.20;99.90
23744;DHT22;12052;53.478;10.182;2023-03-12T06:45:36;-0.20;99.90
23744;DHT22;12052;53.478;10.182;2023-03-12T06:48:02;-0.20;99.90
23744;DHT22;12052;53.478;10.182;2023-03-12T06:50:28;-0.20;99.90
23744;DHT22;12052;53.478;10.182;2023-03-12T06:52:53;-0.20;99.90
23744;DHT22;12052;53.478;10.182;2023-03-12T06:55:19;-0.10;99.90
23744;DHT22;12052;53.478;10.182;2023-03-12T06:57:44;-0.20;99.90
23744;DHT22;12052;53.478;10.182;2023-03-12T07:00:10;-0.10;99.90
23744;DHT22;12052;53.478;10.182;2023-03-12T07:02:36;-0.10;99.90
23744;DHT22;12052;53.478;10.182;2023-03-12T07:05:02;-0.10;99.90
23744;DHT22;12052;53.478;10.182;2023-03-12T07:07:27;-0.10;99.90
23744;DHT22;12052;53.478;10.182;2023-03-12T07:09:53;0.00;99.90
23744;DHT22;12052;53.478;10.182;2023-03-12T07:12:18;0.10;99.90
23744;DHT22;12052;53.478;10.182;2023-03-12T07:14:44;0.40;99.90
23744;DHT22;12052;53.478;10.182;2023-03-12T07:17:09;0.60;99.90
23744;DHT22;12052;53.478;10.182;2023-03-12T07:19:35;0.50;99.90
23744;DHT22;12052;53.478;10.182;2023-03-12T07:22:01;0.50;99.90
23744;DHT22;12052;53.478;10.182;2023-03-12T07:24:26;0.50;99.90
23744;DHT22;12052;53.478;10.182;2023-03-12T07:26:52;0.60;99.90
23744;DHT22;12052;53.478;10.182;2023-03-12T07:29:17;0.60;99.90
23744;DHT22;12052;53.478;10.182;2023-03-12T07:31:43;0.60;99.90
23744;DHT22;12052;53.478;10.182;2023-03-12T07:34:08;0.70;99.90
23744;DHT22;12052;53.478;10.182;2023-03-12T07:36:34;0.70;99.90
23744;DHT22;12052;53.478;10.182;2023-03-12T07:38:59;0.70;99.90
23744;DHT22;12052;53.478;10.182;2023-03-12T07:41:25;0.80;99.90
23744;DHT22;12052;53.478;10.182;2023-03-12T07:43:51;0.80;99.90
23744;DHT22;12052;53.478;10.182;2023-03-12T07:46:16;0.90;99.90
23744;DHT22;12052;53.478;10.182;2023-03-12T07:48:42;0.90;99.90
23744;DHT22;12052;53.478;10.182;2023-03-12T07:51:07;1.00;99.90
23744;DHT22;12052;53.478;10.182;2023-03-12T07:53:33;1.10;99.90
23744;DHT22;12052;53.478;10.182;2023-03-12T07:55:59;1.20;99.90
23744;DHT22;12052;53.478;10.182;2023-03-12T07:58:24;1.30;99.90
23744;DHT22;12052;53.478;10.182;2023-03-12T08:00:50;1.40;99.90
23744;DHT22;12052;53.478;10.182;2023-03-12T08:03:15;1.60;99.90
23744;DHT22;12052;53.478;10.182;2023-03-12T08:05:41;1.60;99.90
23744;DHT22;12052;53.478;10.182;2023-03-12T08:08:07;1.70;99.90
23744;DHT22;12052;53.478;10.182;2023-03-12T08:10:33;1.70;99.90
23744;DHT22;12052;53.478;10.182;2023-03-12T08:12:58;1.70;99.90
23744;DHT22;12052;53.478;10.182;2023-03-12T08:15:24;2.00;99.90
23744;DHT22;12052;53.478;10.182;2023-03-12T08:17:50;2.30;99.90
23744;DHT22;12052;53.478;10.182;2023-03-12T08:20:15;2.10;99.90
23744;DHT22;12052;53.478;10.182;2023-03-12T08:22:41;2.00;99.90
23744;DHT22;12052;53.478;10.182;2023-03-12T08:25:07;2.10;99.90
23744;DHT22;12052;53.478;10.182;2023-03-12T08:27:34;2.10;99.90
23744;DHT22;12052;53.478;10.182;2023-03-12T08:29:59;2.20;99.90
23744;DHT22;12052;53.478;10.182;2023-03-12T08:32:25;2.20;99.90
23744;DHT22;12052;53.478;10.182;2023-03-12T08:34:51;2.20;99.90
23744;DHT22;12052;53.478;10.182;2023-03-12T08:37:16;2.10;99.90
23744;DHT22;12052;53.478;10.182;2023-03-12T08:39:42;2.00;99.90
23744;DHT22;12052;53.478;10.182;2023-03-12T08:42:08;2.00;99.90
23744;DHT22;12052;53.478;10.182;2023-03-12T08:44:34;2.00;99.90
23744;DHT22;12052;53.478;10.182;2023-03-12T08:46:59;2.00;99.90
23744;DHT22;12052;53.478;10.182;2023-03-12T08:49:25;2.10;99.90
23744;DHT22;12052;53.478;10.182;2023-03-12T08:51:50;2.10;99.90
23744;DHT22;12052;53.478;10.182;2023-03-12T08:54:17;2.20;99.90
23744;DHT22;12052;53.478;10.182;2023-03-12T08:56:43;2.20;99.90
23744;DHT22;12052;53.478;10.182;2023-03-12T08:59:11;2.20;99.90
23744;DHT22;12052;53.478;10.182;2023-03-12T09:01:38;2.30;99.90
23744;DHT22;12052;53.478;10.182;2023-03-12T09:04:04;2.20;99.90
23744;DHT22;12052;53.478;10.182;2023-03-12T09:06:30;2.20;99.90
23744;DHT22;12052;53.478;10.182;2023-03-12T09:08:56;2.20;99.90
23744;DHT22;12052;53.478;10.182;2023-03-12T09:11:22;2.30;99.90
23744;DHT22;12052;53.478;10.182;2023-03-12T09:13:48;2.40;99.90
23744;DHT22;12052;53.478;10.182;2023-03-12T09:16:13;2.40;99.90
23744;DHT22;12052;53.478;10.182;2023-03-12T09:18:39;2.50;99.90
23744;DHT22;12052;53.478;10.182;2023-03-12T09:21:05;2.50;99.90
23744;DHT22;12052;53.478;10.182;2023-03-12T09:23:31;2.40;99.90
23744;DHT22;12052;53.478;10.182;2023-03-12T09:25:57;2.40;99.90
23744;DHT22;12052;53.478;10.182;2023-03-12T09:28:22;2.40;99.90
23744;DHT22;12052;53.478;10.182;2023-03-12T09:30:48;2.40;99.90
23744;DHT22;12052;53.478;10.182;2023-03-12T09:33:14;2.40;99.90
23744;DHT22;12052;53.478;10.182;2023-03-12T09:35:41;2.50;99.90
23744;DHT22;12052;53.478;10.182;2023-03-12T09:38:06;2.60;99.90
23744;DHT22;12052;53.478;10.182;2023-03-12T09:40:35;2.70;99.90
23744;DHT22;12052;53.478;10.182;2023-03-12T09:43:06;2.80;99.90
23744;DHT22;12052;53.478;10.182;2023-03-12T09:45:42;2.90;99.90
23744;DHT22;12052;53.478;10.182;2023-03-12T09:48:15;2.90;99.90
23744;DHT22;12052;53.478;10.182;2023-03-12T09:50:48;2.80;99.90
23744;DHT22;12052;53.478;10.182;2023-03-12T09:53:36;2.80;99.90
23744;DHT22;12052;53.478;10.182;2023-03-12T09:56:08;2.80;99.90
23744;DHT22;12052;53.478;10.182;2023-03-12T09:58:38;3.00;99.90
23744;DHT22;12052;53.478;10.182;2023-03-12T10:06:27;3.30;99.90
23744;DHT22;12052;53.478;10.182;2023-03-12T10:09:13;3.40;99.90
23744;DHT22;12052;53.478;10.182;2023-03-12T10:11:57;3.50;99.90
23744;DHT22;12052;53.478;10.182;2023-03-12T10:14:42;3.60;99.90
23744;DHT22;12052;53.478;10.182;2023-03-12T10:20:02;3.80;99.90
23744;DHT22;12052;53.478;10.182;2023-03-12T10:22:59;3.90;99.90
23744;DHT22;12052;53.478;10.182;2023-03-12T10:26:33;4.00;99.90
23744;DHT22;12052;53.478;10.182;2023-03-12T10:29:07;4.10;99.90
23744;DHT22;12052;53.478;10.182;2023-03-12T10:34:26;4.30;99.90
23744;DHT22;12052;53.478;10.182;2023-03-12T10:36:56;4.40;99.90
23744;DHT22;12052;53.478;10.182;2023-03-12T10:39:22;4.50;99.90
23744;DHT22;12052;53.478;10.182;2023-03-12T10:41:48;4.60;99.90
23744;DHT22;12052;53.478;10.182;2023-03-12T10:44:23;4.60;99.90
23744;DHT22;12052;53.478;10.182;2023-03-12T10:46:55;4.60;99.90
23744;DHT22;12052;53.478;10.182;2023-03-12T10:49:27;4.50;99.90
23744;DHT22;12052;53.478;10.182;2023-03-12T10:52:00;4.50;99.90
23744;DHT22;12052;53.478;10.182;2023-03-12T10:54:38;4.50;99.90
23744;DHT22;12052;53.478;10.182;2023-03-12T10:57:06;4.40;99.90
23744;DHT22;12052;53.478;10.182;2023-03-12T10:59:37;4.40;99.90
23744;DHT22;12052;53.478;10.182;2023-03-12T11:04:58;4.40;99.90
23744;DHT22;12052;53.478;10.182;2023-03-12T11:07:32;4.40;99.90
23744;DHT22;12052;53.478;10.182;2023-03-12T11:12:31;4.30;99.90
23744;DHT22;12052;53.478;10.182;2023-03-12T11:14:57;4.30;99.90
23744;DHT22;12052;53.478;10.182;2023-03-12T11:17:26;4.30;99.90
23744;DHT22;12052;53.478;10.182;2023-03-12T11:19:52;4.30;99.90
23744;DHT22;12052;53.478;10.182;2023-03-12T11:22:32;4.40;99.90
23744;DHT22;12052;53.478;10.182;2023-03-12T11:25:01;4.40;99.90
23744;DHT22;12052;53.478;10.182;2023-03-12T11:27:43;4.30;99.90
23744;DHT22;12052;53.478;10.182;2023-03-12T11:30:18;4.30;99.90
23744;DHT22;12052;53.478;10.182;2023-03-12T11:32:47;4.40;99.90
23744;DHT22;12052;53.478;10.182;2023-03-12T11:35:16;4.30;99.90
23744;DHT22;12052;53.478;10.182;2023-03-12T11:37:57;4.40;99.90
23744;DHT22;12052;53.478;10.182;2023-03-12T11:47:18;4.30;99.90
23744;DHT22;12052;53.478;10.182;2023-03-12T11:55:14;4.40;99.90
23744;DHT22;12052;53.478;10.182;2023-03-12T11:58:01;4.40;99.90
23744;DHT22;12052;53.478;10.182;2023-03-12T12:00:47;4.40;99.90
23744;DHT22;12052;53.478;10.182;2023-03-12T12:09:12;4.30;99.90
23744;DHT22;12052;53.478;10.182;2023-03-12T12:11:57;4.30;99.90
23744;DHT22;12052;53.478;10.182;2023-03-12T12:15:40;4.20;99.90
23744;DHT22;12052;53.478;10.182;2023-03-12T12:26:03;4.40;99.90
23744;DHT22;12052;53.478;10.182;2023-03-12T12:31:43;4.50;99.90
23744;DHT22;12052;53.478;10.182;2023-03-12T12:40:29;4.40;99.90
23744;DHT22;12052;53.478;10.182;2023-03-12T12:43:32;4.40;99.90
23744;DHT22;12052;53.478;10.182;2023-03-12T12:46:04;4.40;99.90
23744;DHT22;12052;53.478;10.182;2023-03-12T12:48:51;4.50;99.90
23744;DHT22;12052;53.478;10.182;2023-03-12T12:51:20;4.40;99.90
23744;DHT22;12052;53.478;10.182;2023-03-12T12:56:57;4.50;99.90
23744;DHT22;12052;53.478;10.182;2023-03-12T13:02:19;4.60;99.90
23744;DHT22;12052;53.478;10.182;2023-03-12T13:04:48;4.50;99.90
23744;DHT22;12052;53.478;10.182;2023-03-12T13:15:01;4.10;99.90
23744;DHT22;12052;53.478;10.182;2023-03-12T13:17:35;4.00;99.90
23744;DHT22;12052;53.478;10.182;2023-03-12T13:20:23;3.90;99.90
23744;DHT22;12052;53.478;10.182;2023-03-12T13:28:35;3.60;99.90
23744;DHT22;12052;53.478;10.182;2023-03-12T13:33:57;3.60;99.90
23744;DHT22;12052;53.478;10.182;2023-03-12T13:36:27;3.50;99.90
23744;DHT22;12052;53.478;10.182;2023-03-12T13:43:59;3.40;99.90
23744;DHT22;12052;53.478;10.182;2023-03-12T13:46:32;3.30;99.90
23744;DHT22;12052;53.478;10.182;2023-03-12T13:49:04;3.30;99.90
23744;DHT22;12052;53.478;10.182;2023-03-12T13:51:30;3.20;99.90
23744;DHT22;12052;53.478;10.182;2023-03-12T13:54:00;3.30;99.90
23744;DHT22;12052;53.478;10.182;2023-03-12T13:56:31;3.30;99.90
23744;DHT22;12052;53.478;10.182;2023-03-12T13:59:06;3.40;99.90
23744;DHT22;12052;53.478;10.182;2023-03-12T14:01:47;3.40;99.90
23744;DHT22;12052;53.478;10.182;2023-03-12T14:04:17;3.40;99.90
23744;DHT22;12052;53.478;10.182;2023-03-12T14:07:16;3.30;99.90
23744;DHT22;12052;53.478;10.182;2023-03-12T14:13:02;3.20;99.90
23744;DHT22;12052;53.478;10.182;2023-03-12T14:18:32;3.00;99.90
23744;DHT22;12052;53.478;10.182;2023-03-12T14:21:02;2.90;99.90
23744;DHT22;12052;53.478;10.182;2023-03-12T14:23:43;2.80;99.90
23744;DHT22;12052;53.478;10.182;2023-03-12T14:26:19;2.70;99.90
23744;DHT22;12052;53.478;10.182;2023-03-12T14:28:49;2.70;99.90
23744;DHT22;12052;53.478;10.182;2023-03-12T14:31:20;2.80;99.90
23744;DHT22;12052;53.478;10.182;2023-03-12T14:40:34;2.80;99.90
23744;DHT22;12052;53.478;10.182;2023-03-12T14:43:25;2.80;99.90
23744;DHT22;12052;53.478;10.182;2023-03-12T14:45:56;2.70;99.90
23744;DHT22;12052;53.478;10.182;2023-03-12T14:48:31;2.70;99.90
23744;DHT22;12052;53.478;10.182;2023-03-12T14:51:00;2.70;99.90
23744;DHT22;12052;53.478;10.182;2023-03-12T14:56:00;2.70;99.90
23744;DHT22;12052;53.478;10.182;2023-03-12T14:58:33;2.60;99.90
23744;DHT22;12052;53.478;10.182;2023-03-12T15:01:20;2.60;99.90
23744;DHT22;12052;53.478;10.182;2023-03-12T15:03:52;2.50;99.90
23744;DHT22;12052;53.478;10.182;2023-03-12T15:06:37;2.50;99.90
23744;DHT22;12052;53.478;10.182;2023-03-12T15:09:15;2.50;99.90
23744;DHT22;12052;53.478;10.182;2023-03-12T15:11:43;2.40;99.90
23744;DHT22;12052;53.478;10.182;2023-03-12T15:14:15;2.30;99.90
23744;DHT22;12052;53.478;10.182;2023-03-12T15:16:42;2.30;99.90
23744;DHT22;12052;53.478;10.182;2023-03-12T15:19:12;2.10;99.90
23744;DHT22;12052;53.478;10.182;2023-03-12T15:21:38;2.10;99.90
23744;DHT22;12052;53.478;10.182;2023-03-12T15:24:05;2.10;99.90
23744;DHT22;12052;53.478;10.182;2023-03-12T15:26:33;2.00;99.90
23744;DHT22;12052;53.478;10.182;2023-03-12T15:29:24;2.00;99.90
23744;DHT22;12052;53.478;10.182;2023-03-12T15:31:55;1.90;99.90
23744;DHT22;12052;53.478;10.182;2023-03-12T15:37:02;1.90;99.90
23744;DHT22;12052;53.478;10.182;2023-03-12T15:39:33;1.80;99.90
23744;DHT22;12052;53.478;10.182;2023-03-12T15:42:08;1.80;99.90
23744;DHT22;12052;53.478;10.182;2023-03-12T15:47:14;1.90;99.90
23744;DHT22;12052;53.478;10.182;2023-03-12T15:49:41;1.80;99.90
23744;DHT22;12052;53.478;10.182;2023-03-12T15:52:32;1.80;99.90
23744;DHT22;12052;53.478;10.182;2023-03-12T15:57:49;1.80;99.90
23744;DHT22;12052;53.478;10.182;2023-03-12T16:00:23;1.80;99.90
23744;DHT22;12052;53.478;10.182;2023-03-12T16:03:02;1.70;99.90
23744;DHT22;12052;53.478;10.182;2023-03-12T16:05:31;1.70;99.90
23744;DHT22;12052;53.478;10.182;2023-03-12T16:08:11;1.70;99.90
23744;DHT22;12052;53.478;10.182;2023-03-12T16:10:38;1.70;99.90
23744;DHT22;12052;53.478;10.182;2023-03-12T16:13:04;1.70;99.90
23744;DHT22;12052;53.478;10.182;2023-03-12T16:15:37;1.70;99.90
23744;DHT22;12052;53.478;10.182;2023-03-12T16:18:03;1.50;99.90
23744;DHT22;12052;53.478;10.182;2023-03-12T16:20:29;1.60;99.90
23744;DHT22;12052;53.478;10.182;2023-03-12T16:22:55;1.60;99.90
23744;DHT22;12052;53.478;10.182;2023-03-12T16:25:21;1.60;99.90
23744;DHT22;12052;53.478;10.182;2023-03-12T16:27:54;1.70;99.90
23744;DHT22;12052;53.478;10.182;2023-03-12T16:30:27;1.70;99.90
23744;DHT22;12052;53.478;10.182;2023-03-12T16:32:52;1.70;99.90
23744;DHT22;12052;53.478;10.182;2023-03-12T16:35:19;1.70;99.90
23744;DHT22;12052;53.478;10.182;2023-03-12T16:37:45;1.70;99.90
23744;DHT22;12052;53.478;10.182;2023-03-12T16:40:12;1.70;99.90
23744;DHT22;12052;53.478;10.182;2023-03-12T16:42:41;1.70;99.90
23744;DHT22;12052;53.478;10.182;2023-03-12T16:45:12;1.70;99.90
23744;DHT22;12052;53.478;10.182;2023-03-12T16:47:40;1.70;99.90
23744;DHT22;12052;53.478;10.182;2023-03-12T16:50:17;1.80;99.90
23744;DHT22;12052;53.478;10.182;2023-03-12T16:52:44;1.80;99.90
23744;DHT22;12052;53.478;10.182;2023-03-12T16:55:16;1.80;99.90
23744;DHT22;12052;53.478;10.182;2023-03-12T16:57:45;1.80;99.90
23744;DHT22;12052;53.478;10.182;2023-03-12T17:00:23;1.90;99.90
23744;DHT22;12052;53.478;10.182;2023-03-12T17:02:50;1.90;99.90
23744;DHT22;12052;53.478;10.182;2023-03-12T17:05:19;1.80;99.90
23744;DHT22;12052;53.478;10.182;2023-03-12T17:07:45;1.90;99.90
23744;DHT22;12052;53.478;10.182;2023-03-12T17:10:13;1.80;99.90
23744;DHT22;12052;53.478;10.182;2023-03-12T17:12:39;1.90;99.90
23744;DHT22;12052;53.478;10.182;2023-03-12T17:15:21;1.90;99.90
23744;DHT22;12052;53.478;10.182;2023-03-12T17:17:50;1.90;99.90
23744;DHT22;12052;53.478;10.182;2023-03-12T17:20:18;1.90;99.90
23744;DHT22;12052;53.478;10.182;2023-03-12T17:22:43;1.90;99.90
23744;DHT22;12052;53.478;10.182;2023-03-12T17:25:23;1.90;99.90
23744;DHT22;12052;53.478;10.182;2023-03-12T17:27:49;1.90;99.90
23744;DHT22;12052;53.478;10.182;2023-03-12T17:30:15;1.90;99.90
23744;DHT22;12052;53.478;10.182;2023-03-12T17:32:41;1.90;99.90